Details From EGLC - London City
To GCGM - La Gomera
Flight Number -
Tags Generated
Created
Modified
Stats Distance 1,611 nm / 2,983 km
Max Altitude 0 ft / 0 m
Waypoints 5
Social Downloads 0
Likes 0
Share VATSIM

Download

Looking for another format? Having issues loading an existing format? Contact us
Advertisement - Login to hide

Notes

Generated

Route

EGLC TERKU TURON LGM GCGM

ID Type Via Altitude Latitude Longitude Leg Dist Tot Dist Heading (true) Name
O EGLC APT - 0 ft / 0 m 51.50558˚ 0.04414˚ - 0 nm - -
TERKU FIX - 0 ft / 0 m 48.03000˚ -3.61667˚ 252 nm 252 nm 216° / 213° -
TURON FIX - 0 ft / 0 m 42.06793˚ -8.56342˚ 414 nm 667 nm 212° / 209° -
LGM VOR - 0 ft / 0 m 28.02874˚ -17.21487˚ 943 nm 1610 nm 209° / 204° LA GOMERA VOR-DME
O GCGM APT - 0 ft / 0 m 28.02859˚ -17.22214˚ 0 nm 1610 nm 269° / 269° -

Altitude Profile

Advertisement - Login to hide

Weather


0- 5 10 15 20 25 30 35+ Temperature / ° C

Clouds and Precipitation
Forecast for 2018-05-23 00:00 UTC. Updated 3 hours ago

Ground ~20,000 ft ~40,000 ft Winds

EGLC

Details ICAO EGLC (LCY)
Name London City
Region United Kingdom
Timezone Europe/London (UTC+1.0)
Stats Elevation 19 ft / 6 m (AMSL)
Location 51.505231° 0.055175°
Runways 1
Magnetic Variation 0.320° W

METAR

EGLC 230220Z AUTO VRB06KT 9999 OVC012 12/09 Q1022

Decode

TAF

Not found

Departure Runways

ID Width Length Bearing (true) Bearing (mag) Surface Threshold Offset Overrun Length
09 98 ft / 30 m 4,931 ft / 1,503 m 92.89° 93.21° Concrete 322 ft / 98 m 164 ft / 50 m
27 98 ft / 30 m 4,931 ft / 1,503 m 272.91° 273.23° Concrete 243 ft / 74 m 279 ft / 85 m

GCGM

Details ICAO GCGM (GMZ)
Name La Gomera
Region Canary Islands
Timezone Atlantic/Canary (UTC+1.0)
Stats Elevation 715 ft / 218 m (AMSL)
Location 28.029627° -17.214603°
Runways 1
Magnetic Variation 5.308° W

METAR

GCGM 230230Z AUTO 32004KT 290V350 9999 BKN047 18/12 Q1018 RMK R09/30004KT 270V330 ARP/31004KT 280V340

Decode

TAF

TAF GCGM 230200Z 2303/2403 35005KT 9999 SCT035 TX20/2314Z TN17/2305Z

Decode

Destination Runways

ID Width Length Bearing (true) Bearing (mag) Surface Threshold Offset Overrun Length
09 98 ft / 30 m 4,914 ft / 1,498 m 81.17° 86.48° Asphalt 0 ft / 0 m 0 ft / 0 m
27 98 ft / 30 m 4,914 ft / 1,498 m 261.18° 266.49° Asphalt 0 ft / 0 m 0 ft / 0 m

Popular Alternatives